createdAt,value
2023-08-04T00:00:26.708Z,7.30
2023-08-04T00:02:55.754Z,8.68
2023-08-04T00:05:26.563Z,6.70
2023-08-04T00:07:55.980Z,6.53
2023-08-04T00:10:25.244Z,6.90
2023-08-04T00:12:54.373Z,7.07
2023-08-04T00:15:23.591Z,8.20
2023-08-04T00:17:52.720Z,7.38
2023-08-04T00:20:21.873Z,7.40
2023-08-04T00:22:52.507Z,5.80
2023-08-04T00:25:21.585Z,9.13
2023-08-04T00:27:50.555Z,9.15
2023-08-04T00:30:19.708Z,8.20
2023-08-04T00:32:49.792Z,9.48
2023-08-04T00:35:18.941Z,8.48
2023-08-04T00:37:47.882Z,9.23
2023-08-04T00:40:18.626Z,6.97
2023-08-04T00:42:47.783Z,7.07
2023-08-04T00:45:16.807Z,7.15
2023-08-04T00:47:45.856Z,8.27
2023-08-04T00:50:15.068Z,7.13
2023-08-04T00:52:46.666Z,7.05
2023-08-04T00:55:19.226Z,7.00
2023-08-04T00:57:50.203Z,8.07
2023-08-04T01:00:19.226Z,10.27
2023-08-04T01:02:48.350Z,6.60
2023-08-04T01:05:17.636Z,7.75
2023-08-04T01:07:54.308Z,7.80
2023-08-04T01:10:33.326Z,5.97
2023-08-04T01:13:06.585Z,6.80
2023-08-04T01:15:38.530Z,7.90
2023-08-04T01:18:07.579Z,6.40
2023-08-04T01:20:36.649Z,6.38
2023-08-04T01:23:07.522Z,7.00
2023-08-04T01:25:38.318Z,6.93
2023-08-04T01:28:11.810Z,8.35
2023-08-04T01:30:44.273Z,7.25
2023-08-04T01:33:13.617Z,6.15
2023-08-04T01:35:44.333Z,7.90
2023-08-04T01:38:15.126Z,6.28
2023-08-04T01:40:44.161Z,6.05
2023-08-04T01:43:13.274Z,5.95
2023-08-04T01:45:42.487Z,7.32
2023-08-04T01:48:11.477Z,6.88
2023-08-04T01:50:40.455Z,7.63
2023-08-04T01:53:09.454Z,6.63
2023-08-04T01:55:40.043Z,6.15
2023-08-04T01:58:09.008Z,5.25
2023-08-04T02:00:38.012Z,7.57
2023-08-04T02:03:07.205Z,7.70
2023-08-04T02:05:36.272Z,6.43
2023-08-04T02:08:05.536Z,6.93
2023-08-04T02:10:34.848Z,7.38
2023-08-04T02:13:05.495Z,6.72
2023-08-04T02:15:34.465Z,7.05
2023-08-04T02:18:03.496Z,6.25
2023-08-04T02:20:32.753Z,5.75
2023-08-04T02:23:02.299Z,6.22
2023-08-04T02:25:31.264Z,6.35
2023-08-04T02:28:00.253Z,5.65
2023-08-04T02:30:30.968Z,7.45
2023-08-04T02:33:00.036Z,8.80
2023-08-04T02:35:29.142Z,5.65
2023-08-04T02:37:58.169Z,7.03
2023-08-04T02:40:27.175Z,7.68
2023-08-04T02:42:56.118Z,6.57
2023-08-04T02:45:25.040Z,6.32
2023-08-04T02:47:55.715Z,7.18
2023-08-04T02:50:24.662Z,7.25
2023-08-04T02:52:53.645Z,8.45
2023-08-04T02:55:22.637Z,7.53
2023-08-04T02:57:51.587Z,8.43
2023-08-04T03:00:20.918Z,7.45
2023-08-04T03:02:49.999Z,7.05
2023-08-04T03:05:20.669Z,8.80
2023-08-04T03:07:49.641Z,7.57
2023-08-04T03:10:18.928Z,6.07
2023-08-04T03:12:47.911Z,7.53
2023-08-04T03:15:17.057Z,8.23
2023-08-04T03:17:46.103Z,9.48
2023-08-04T03:20:15.206Z,9.18
2023-08-04T03:22:45.853Z,7.10
2023-08-04T03:25:14.964Z,6.45
2023-08-04T03:27:43.918Z,7.72
2023-08-04T03:30:13.773Z,7.53
2023-08-04T03:32:42.773Z,7.72
2023-08-04T03:35:11.863Z,8.98
2023-08-04T03:37:41.569Z,7.38
2023-08-04T03:40:13.578Z,6.65
2023-08-04T03:42:42.693Z,8.38
2023-08-04T03:45:12.208Z,8.75
2023-08-04T03:47:41.918Z,10.70
2023-08-04T03:50:11.224Z,9.35
2023-08-04T03:52:40.216Z,10.07
2023-08-04T03:55:10.043Z,10.50
2023-08-04T03:57:40.670Z,8.20
2023-08-04T04:00:11.268Z,9.43
2023-08-04T04:02:40.486Z,8.52
2023-08-04T04:05:10.468Z,10.55
2023-08-04T04:07:39.696Z,9.93
2023-08-04T04:10:09.974Z,6.80
2023-08-04T04:12:40.680Z,6.68
2023-08-04T04:15:10.583Z,7.82
2023-08-04T04:17:39.747Z,8.32
2023-08-04T04:20:09.917Z,7.93
2023-08-04T04:22:38.919Z,8.70
2023-08-04T04:25:08.414Z,11.02
2023-08-04T04:27:37.585Z,10.40
2023-08-04T04:30:09.352Z,10.35
2023-08-04T04:32:38.350Z,8.68
2023-08-04T04:35:08.233Z,9.75
2023-08-04T04:37:37.202Z,13.77
2023-08-04T04:40:07.143Z,9.35
2023-08-04T04:42:36.411Z,9.73
2023-08-04T04:45:05.977Z,9.10
2023-08-04T04:47:36.692Z,9.35
2023-08-04T04:50:05.903Z,11.43
2023-08-04T04:52:37.878Z,7.57
2023-08-04T04:55:08.340Z,11.18
2023-08-04T04:57:41.824Z,9.75
2023-08-04T05:00:11.872Z,9.13
2023-08-04T05:02:42.604Z,13.15
2023-08-04T05:05:12.264Z,9.55
2023-08-04T05:07:41.253Z,7.85
2023-08-04T05:10:11.413Z,11.40
2023-08-04T05:12:40.372Z,9.68
2023-08-04T05:15:10.640Z,11.35
2023-08-04T05:17:40.709Z,9.45
2023-08-04T05:20:12.839Z,9.20
2023-08-04T05:22:42.861Z,10.85
2023-08-04T05:25:12.132Z,9.55
2023-08-04T05:27:41.142Z,10.25
2023-08-04T05:30:11.595Z,9.88
2023-08-04T05:32:40.580Z,11.80
2023-08-04T05:35:11.771Z,11.73
2023-08-04T05:37:40.796Z,13.30
2023-08-04T05:40:11.046Z,12.43
2023-08-04T05:42:40.041Z,11.70
2023-08-04T05:45:11.215Z,10.95
2023-08-04T05:47:40.258Z,9.82
2023-08-04T05:50:12.217Z,13.65
2023-08-04T05:52:41.213Z,9.32
2023-08-04T05:55:10.705Z,11.02
2023-08-04T05:57:39.699Z,14.93
2023-08-04T06:00:10.111Z,12.73
2023-08-04T06:02:39.222Z,12.02
2023-08-04T06:05:09.200Z,12.13
2023-08-04T06:07:39.879Z,12.82
2023-08-04T06:10:10.140Z,14.35
2023-08-04T06:12:39.320Z,12.13
2023-08-04T06:15:09.232Z,12.35
2023-08-04T06:17:38.223Z,10.00
2023-08-04T06:20:09.102Z,10.95
2023-08-04T06:22:39.832Z,9.75
2023-08-04T06:25:09.556Z,10.05
2023-08-04T06:27:38.552Z,10.80
2023-08-04T06:30:09.363Z,13.10
2023-08-04T06:32:38.344Z,8.20
2023-08-04T06:35:08.316Z,11.05
2023-08-04T06:37:39.059Z,12.00
2023-08-04T06:40:09.099Z,9.07
2023-08-04T06:42:38.117Z,11.98
2023-08-04T06:45:08.793Z,11.75
2023-08-04T06:47:37.852Z,11.23
2023-08-04T06:50:07.726Z,11.65
2023-08-04T06:52:36.792Z,8.18
2023-08-04T06:55:08.154Z,8.27
2023-08-04T06:57:37.150Z,11.20
2023-08-04T07:00:07.186Z,9.95
2023-08-04T07:02:36.277Z,10.85
2023-08-04T07:05:06.638Z,10.70
2023-08-04T07:07:35.896Z,11.02
2023-08-04T07:10:07.062Z,8.98
2023-08-04T07:12:36.974Z,11.18
2023-08-04T07:15:06.682Z,12.00
2023-08-04T07:17:35.842Z,10.90
2023-08-04T07:20:05.979Z,8.38
2023-08-04T07:22:34.993Z,10.02
2023-08-04T07:25:04.056Z,9.82
2023-08-04T07:27:34.760Z,7.80
2023-08-04T07:30:03.773Z,10.45
2023-08-04T07:32:32.859Z,10.02
2023-08-04T07:35:01.979Z,16.08
2023-08-04T07:37:31.590Z,11.43
2023-08-04T07:40:01.124Z,11.40
2023-08-04T07:42:31.576Z,11.48
2023-08-04T07:45:02.260Z,9.27
2023-08-04T07:47:31.755Z,10.45
2023-08-04T07:50:00.866Z,7.78
2023-08-04T07:52:29.900Z,7.43
2023-08-04T07:54:58.899Z,10.65
2023-08-04T07:57:28.034Z,11.48
2023-08-04T07:59:56.995Z,8.65
2023-08-04T08:02:27.639Z,8.73
2023-08-04T08:04:56.877Z,8.23
2023-08-04T08:07:35.785Z,10.52
2023-08-04T08:10:12.890Z,10.57
2023-08-04T08:12:41.947Z,9.27
2023-08-04T08:15:11.702Z,9.90
2023-08-04T08:17:42.425Z,8.98
2023-08-04T08:20:12.081Z,10.43
2023-08-04T08:22:41.130Z,11.43
2023-08-04T08:25:12.428Z,11.52
2023-08-04T08:27:41.398Z,11.52
2023-08-04T08:30:11.009Z,9.95
2023-08-04T08:32:41.772Z,9.10
2023-08-04T08:35:11.326Z,7.57
2023-08-04T08:37:40.402Z,9.38
2023-08-04T08:40:11.284Z,12.82
2023-08-04T08:42:40.473Z,12.20
2023-08-04T08:45:10.301Z,15.13
2023-08-04T08:47:40.168Z,9.52
2023-08-04T08:50:13.193Z,11.90
2023-08-04T08:52:43.959Z,9.80
2023-08-04T08:55:14.264Z,10.38
2023-08-04T08:57:43.305Z,9.88
2023-08-04T09:00:13.720Z,12.85
2023-08-04T09:02:43.970Z,8.00
2023-08-04T09:05:14.854Z,10.48
2023-08-04T09:07:43.819Z,14.15
2023-08-04T09:10:14.672Z,11.02
2023-08-04T09:12:50.141Z,12.75
2023-08-04T09:15:19.249Z,12.18
2023-08-04T09:17:48.949Z,10.32
2023-08-04T09:20:31.661Z,12.38
2023-08-04T09:23:02.648Z,12.07
2023-08-04T09:25:31.778Z,10.38
2023-08-04T09:28:01.138Z,11.57
2023-08-04T09:30:30.328Z,15.18
2023-08-04T09:33:00.042Z,13.95
2023-08-04T09:35:32.394Z,11.93
2023-08-04T09:38:01.529Z,14.77
2023-08-04T09:40:37.284Z,9.48
2023-08-04T09:43:06.531Z,12.70
2023-08-04T09:45:35.830Z,14.23
2023-08-04T09:48:12.541Z,12.30
2023-08-04T09:50:43.198Z,10.23
2023-08-04T09:53:12.251Z,10.15
2023-08-04T09:55:41.460Z,11.25
2023-08-04T09:58:10.515Z,11.85
2023-08-04T10:00:40.114Z,12.07
2023-08-04T10:03:09.675Z,12.05
2023-08-04T10:05:39.720Z,12.73
2023-08-04T10:08:10.753Z,15.77
2023-08-04T10:10:40.064Z,11.05
2023-08-04T10:13:09.295Z,15.27
2023-08-04T10:15:38.654Z,12.25
2023-08-04T10:18:07.793Z,11.38
2023-08-04T10:20:37.072Z,11.00
2023-08-04T10:23:06.710Z,15.73
2023-08-04T10:25:37.802Z,12.70
2023-08-04T10:28:06.961Z,16.40
2023-08-04T10:30:48.468Z,13.50
2023-08-04T10:33:23.603Z,14.75
2023-08-04T10:36:10.580Z,10.00
2023-08-04T10:38:51.415Z,9.85
2023-08-04T10:41:21.996Z,11.52
2023-08-04T10:44:04.735Z,12.65
2023-08-04T10:46:36.019Z,9.50
2023-08-04T10:49:05.260Z,10.40
2023-08-04T10:51:34.394Z,12.27
2023-08-04T10:54:03.407Z,12.05
2023-08-04T10:56:38.512Z,13.88
2023-08-04T10:59:10.940Z,11.68
2023-08-04T11:01:39.982Z,12.07
2023-08-04T11:04:09.042Z,10.48
2023-08-04T11:06:38.997Z,15.07
2023-08-04T11:09:11.031Z,13.23
2023-08-04T11:11:42.086Z,9.57
2023-08-04T11:14:11.247Z,11.52
2023-08-04T11:16:40.378Z,10.07
2023-08-04T11:19:10.720Z,9.02
2023-08-04T11:21:41.657Z,9.98
2023-08-04T11:24:12.902Z,11.65
2023-08-04T11:26:43.637Z,10.35
2023-08-04T11:29:14.914Z,12.07
2023-08-04T11:31:44.529Z,9.00
2023-08-04T11:34:15.507Z,11.52
2023-08-04T11:36:45.177Z,13.48
2023-08-04T11:39:14.144Z,11.18
2023-08-04T11:41:46.518Z,11.30
2023-08-04T11:44:18.292Z,11.45
2023-08-04T11:46:47.881Z,10.95
2023-08-04T11:49:17.553Z,13.20
2023-08-04T11:51:47.184Z,10.40
2023-08-04T11:54:20.764Z,8.70
2023-08-04T11:56:55.864Z,9.88
2023-08-04T11:59:25.696Z,9.80
2023-08-04T12:02:08.014Z,12.80
2023-08-04T12:04:38.051Z,9.68
2023-08-04T12:07:08.827Z,8.60
2023-08-04T12:09:37.990Z,7.57
2023-08-04T12:12:09.992Z,8.93
2023-08-04T12:14:55.235Z,11.93
2023-08-04T12:17:39.082Z,10.95
2023-08-04T12:20:10.453Z,14.32
2023-08-04T12:22:40.357Z,15.23
2023-08-04T12:25:10.401Z,14.20
2023-08-04T12:27:42.657Z,17.67
2023-08-04T12:30:12.223Z,16.40
2023-08-04T12:32:41.346Z,13.98
2023-08-04T12:35:10.793Z,14.57
2023-08-04T12:37:39.811Z,11.38
2023-08-04T12:40:09.952Z,16.38
2023-08-04T12:42:40.740Z,13.77
2023-08-04T12:45:10.301Z,12.63
2023-08-04T12:47:39.355Z,11.40
2023-08-04T12:50:09.898Z,12.15
2023-08-04T12:52:39.002Z,13.73
2023-08-04T12:55:08.817Z,11.90
2023-08-04T12:57:37.824Z,11.93
2023-08-04T13:00:09.826Z,9.90
2023-08-04T13:02:39.160Z,13.52
2023-08-04T13:05:09.117Z,9.82
2023-08-04T13:07:38.105Z,11.48
2023-08-04T13:10:08.175Z,11.10
2023-08-04T13:12:38.827Z,13.43
2023-08-04T13:15:10.886Z,12.63
2023-08-04T13:17:39.880Z,12.13
2023-08-04T13:20:11.303Z,13.70
2023-08-04T13:22:43.541Z,14.60
2023-08-04T13:25:13.046Z,14.50
2023-08-04T13:27:42.090Z,13.73
2023-08-04T13:30:13.166Z,11.27
2023-08-04T13:32:42.305Z,13.38
2023-08-04T13:35:11.482Z,10.82
2023-08-04T13:37:40.559Z,15.43
2023-08-04T13:40:10.602Z,14.00
2023-08-04T13:42:39.727Z,20.33
2023-08-04T13:45:09.476Z,12.10
2023-08-04T13:47:40.364Z,16.60
2023-08-04T13:50:10.452Z,17.67
2023-08-04T13:52:39.676Z,15.95
2023-08-04T13:55:09.172Z,14.23
2023-08-04T13:57:41.465Z,14.52
2023-08-04T14:00:12.655Z,13.07
2023-08-04T14:02:43.622Z,20.10
2023-08-04T14:05:13.078Z,11.73
2023-08-04T14:07:44.952Z,15.93
2023-08-04T14:10:15.313Z,17.52
2023-08-04T14:12:44.280Z,18.13
2023-08-04T14:15:13.266Z,16.70
2023-08-04T14:17:44.007Z,17.13
2023-08-04T14:20:16.242Z,16.98
2023-08-04T14:22:45.481Z,15.40
2023-08-04T14:25:14.492Z,18.67
2023-08-04T14:27:43.486Z,17.63
2023-08-04T14:30:13.061Z,16.17
2023-08-04T14:32:43.952Z,16.67
2023-08-04T14:35:13.141Z,14.18
2023-08-04T14:37:42.268Z,19.92
2023-08-04T14:40:12.033Z,20.83
2023-08-04T14:42:43.078Z,14.82
2023-08-04T14:45:13.236Z,15.48
2023-08-04T14:47:44.002Z,15.75
2023-08-04T14:50:13.418Z,13.15
2023-08-04T14:52:42.445Z,19.33
2023-08-04T14:55:11.531Z,18.02
2023-08-04T14:57:40.551Z,16.95
2023-08-04T15:00:10.723Z,15.93
2023-08-04T15:02:39.845Z,12.63
2023-08-04T15:05:11.577Z,14.30
2023-08-04T15:07:40.585Z,15.88
2023-08-04T15:10:10.418Z,14.75
2023-08-04T15:12:39.448Z,14.88
2023-08-04T15:15:09.237Z,18.30
2023-08-04T15:17:39.447Z,18.08
2023-08-04T15:20:11.361Z,12.98
2023-08-04T15:22:40.816Z,14.55
2023-08-04T15:25:10.310Z,12.20
2023-08-04T15:27:40.105Z,12.70
2023-08-04T15:30:10.361Z,13.05
2023-08-04T15:32:39.436Z,15.82
2023-08-04T15:35:10.645Z,12.77
2023-08-04T15:37:39.849Z,14.52
2023-08-04T15:40:11.765Z,11.60
2023-08-04T15:42:40.839Z,15.88
2023-08-04T15:45:10.418Z,13.93
2023-08-04T15:47:39.800Z,13.50
2023-08-04T15:50:11.375Z,15.73
2023-08-04T15:52:40.518Z,16.13
2023-08-04T15:55:13.249Z,9.73
2023-08-04T15:57:43.282Z,18.65
2023-08-04T16:00:13.437Z,14.35
2023-08-04T16:02:42.576Z,12.20
2023-08-04T16:05:13.334Z,12.73
2023-08-04T16:07:43.201Z,13.10
2023-08-04T16:10:12.631Z,15.20
2023-08-04T16:12:41.736Z,9.10
2023-08-04T16:15:11.489Z,12.88
2023-08-04T16:17:40.933Z,13.68
2023-08-04T16:20:10.511Z,12.38
2023-08-04T16:22:41.152Z,16.90
2023-08-04T16:25:11.069Z,13.80
2023-08-04T16:27:40.159Z,13.55
2023-08-04T16:30:10.099Z,15.80
2023-08-04T16:32:39.116Z,10.02
2023-08-04T16:35:08.908Z,10.55
2023-08-04T16:37:39.584Z,14.05
2023-08-04T16:40:09.706Z,12.45
2023-08-04T16:42:38.739Z,10.70
2023-08-04T16:45:08.739Z,15.50
2023-08-04T16:47:37.802Z,13.13
2023-08-04T16:50:07.750Z,10.73
2023-08-04T16:52:38.341Z,12.30
2023-08-04T16:55:09.739Z,12.43
2023-08-04T16:57:40.245Z,12.13
2023-08-04T17:00:10.535Z,12.82
2023-08-04T17:02:39.638Z,12.52
2023-08-04T17:05:10.526Z,12.80
2023-08-04T17:07:39.898Z,12.50
2023-08-04T17:10:11.320Z,11.20
2023-08-04T17:12:40.348Z,11.00
2023-08-04T17:15:12.521Z,11.40
2023-08-04T17:17:43.523Z,13.52
2023-08-04T17:20:13.419Z,13.70
2023-08-04T17:22:42.403Z,14.23
2023-08-04T17:25:13.677Z,11.05
2023-08-04T17:27:42.688Z,12.02
2023-08-04T17:30:12.498Z,9.02
2023-08-04T17:32:41.682Z,11.40
2023-08-04T17:35:11.283Z,10.63
2023-08-04T17:37:40.274Z,10.65
2023-08-04T17:40:12.239Z,12.30
2023-08-04T17:42:41.303Z,11.50
2023-08-04T17:45:11.067Z,11.85
2023-08-04T17:47:40.135Z,12.70
2023-08-04T17:50:10.003Z,10.05
2023-08-04T17:52:38.997Z,11.48
2023-08-04T17:55:08.773Z,11.25
2023-08-04T17:57:39.386Z,9.65
2023-08-04T18:00:09.958Z,9.52
2023-08-04T18:02:39.009Z,12.75
2023-08-04T18:05:08.499Z,9.10
2023-08-04T18:07:37.526Z,9.40
2023-08-04T18:10:07.467Z,8.30
2023-08-04T18:12:36.454Z,11.05
2023-08-04T18:15:08.159Z,7.82
2023-08-04T18:17:37.217Z,13.07
2023-08-04T18:20:07.093Z,11.10
2023-08-04T18:22:36.107Z,12.77
2023-08-04T18:25:05.959Z,8.10
2023-08-04T18:27:34.936Z,9.88
2023-08-04T18:30:06.133Z,10.73
2023-08-04T18:32:35.100Z,13.93
2023-08-04T18:35:04.934Z,12.20
2023-08-04T18:37:33.921Z,10.75
2023-08-04T18:40:06.196Z,11.38
2023-08-04T18:42:39.768Z,9.80
2023-08-04T18:45:12.544Z,12.88
2023-08-04T18:47:42.812Z,9.18
2023-08-04T18:50:12.357Z,10.27
2023-08-04T18:52:41.308Z,10.60
2023-08-04T18:55:10.757Z,8.65
2023-08-04T18:57:39.661Z,10.10
2023-08-04T19:00:11.495Z,12.35
2023-08-04T19:02:40.530Z,11.45
2023-08-04T19:05:10.328Z,8.07
2023-08-04T19:07:39.344Z,10.57
2023-08-04T19:10:09.849Z,10.65
2023-08-04T19:12:38.804Z,10.90
2023-08-04T19:15:10.966Z,12.27
2023-08-04T19:17:39.966Z,11.38
2023-08-04T19:20:10.423Z,10.55
2023-08-04T19:22:39.527Z,11.25
2023-08-04T19:25:10.030Z,13.40
2023-08-04T19:27:39.180Z,10.10
2023-08-04T19:30:11.354Z,9.23
2023-08-04T19:32:40.400Z,13.65
2023-08-04T19:35:10.375Z,11.30
2023-08-04T19:37:39.344Z,12.82
2023-08-04T19:40:09.425Z,11.90
2023-08-04T19:42:38.604Z,14.73
2023-08-04T19:45:10.976Z,12.90
2023-08-04T19:47:40.030Z,11.55
2023-08-04T19:50:10.003Z,13.95
2023-08-04T19:52:38.995Z,14.05
2023-08-04T19:55:08.730Z,10.57
2023-08-04T19:57:37.683Z,10.30
2023-08-04T20:00:07.977Z,11.18
2023-08-04T20:02:38.607Z,10.75
2023-08-04T20:05:08.111Z,11.77
2023-08-04T20:07:37.104Z,12.98
2023-08-04T20:10:06.842Z,13.38
2023-08-04T20:12:36.006Z,9.02
2023-08-04T20:15:05.264Z,11.93
2023-08-04T20:17:34.250Z,9.18
2023-08-04T20:20:05.360Z,9.40
2023-08-04T20:22:34.380Z,10.00
2023-08-04T20:25:03.367Z,11.82
2023-08-04T20:27:32.388Z,12.00
2023-08-04T20:30:01.386Z,10.60
2023-08-04T20:32:30.399Z,11.80
2023-08-04T20:34:59.474Z,8.88
2023-08-04T20:37:30.148Z,12.25
2023-08-04T20:39:59.186Z,15.15
2023-08-04T20:42:28.228Z,9.88
2023-08-04T20:44:57.598Z,10.10
2023-08-04T20:47:26.657Z,10.32
2023-08-04T20:49:56.313Z,10.57
2023-08-04T20:52:25.324Z,10.30
2023-08-04T20:54:55.933Z,12.63
2023-08-04T20:57:25.547Z,9.85
2023-08-04T20:59:54.525Z,10.23
2023-08-04T21:02:23.562Z,11.43
2023-08-04T21:04:52.736Z,9.65
2023-08-04T21:07:21.726Z,11.18
2023-08-04T21:09:50.711Z,10.60
2023-08-04T21:12:21.589Z,11.40
2023-08-04T21:14:50.558Z,13.93
2023-08-04T21:17:19.534Z,12.07
2023-08-04T21:19:48.590Z,11.10
2023-08-04T21:22:17.527Z,14.85
2023-08-04T21:24:46.470Z,13.05
2023-08-04T21:27:15.524Z,10.15
2023-08-04T21:29:46.141Z,12.60
2023-08-04T21:32:15.742Z,10.57
2023-08-04T21:34:44.708Z,10.90
2023-08-04T21:37:13.639Z,9.98
2023-08-04T21:39:42.623Z,11.63
2023-08-04T21:42:11.588Z,12.57
2023-08-04T21:44:40.607Z,8.98
2023-08-04T21:47:11.301Z,11.88
2023-08-04T21:49:40.340Z,11.60
2023-08-04T21:52:09.851Z,11.70
2023-08-04T21:54:38.929Z,9.63
2023-08-04T21:57:08.449Z,11.57
2023-08-04T21:59:37.604Z,13.43
2023-08-04T22:02:07.524Z,11.90
2023-08-04T22:04:38.301Z,11.55
2023-08-04T22:07:08.261Z,13.60
2023-08-04T22:09:37.312Z,13.38
2023-08-04T22:12:09.184Z,15.23
2023-08-04T22:14:38.145Z,15.65
2023-08-04T22:17:07.248Z,20.20
2023-08-04T22:19:38.104Z,13.35
2023-08-04T22:22:09.890Z,13.43
2023-08-04T22:24:38.893Z,14.95
2023-08-04T22:27:08.584Z,12.20
2023-08-04T22:29:37.524Z,12.38
2023-08-04T22:32:06.955Z,16.70
2023-08-04T22:34:37.585Z,15.20
2023-08-04T22:37:06.758Z,19.33
2023-08-04T22:39:35.784Z,14.38
2023-08-04T22:42:05.153Z,16.13
2023-08-04T22:44:34.120Z,17.73
2023-08-04T22:47:03.127Z,14.13
2023-08-04T22:49:32.077Z,13.93
2023-08-04T22:52:02.655Z,14.52
2023-08-04T22:54:33.262Z,11.52
2023-08-04T22:57:03.000Z,13.32
2023-08-04T22:59:32.121Z,11.98
2023-08-04T23:02:01.139Z,12.23
2023-08-04T23:04:30.285Z,14.30
2023-08-04T23:06:59.360Z,14.57
2023-08-04T23:09:30.077Z,13.98
2023-08-04T23:11:59.110Z,14.88
2023-08-04T23:14:28.084Z,10.70
2023-08-04T23:16:57.438Z,12.95
2023-08-04T23:19:26.467Z,11.82
2023-08-04T23:21:55.627Z,14.30
2023-08-04T23:24:24.793Z,10.98
2023-08-04T23:26:55.684Z,15.43
2023-08-04T23:29:24.624Z,11.88
2023-08-04T23:31:53.972Z,14.85
2023-08-04T23:34:23.063Z,13.93
2023-08-04T23:36:52.535Z,11.90
2023-08-04T23:39:21.722Z,16.27
2023-08-04T23:41:50.691Z,14.60
2023-08-04T23:44:21.423Z,11.95
2023-08-04T23:46:50.581Z,11.32
2023-08-04T23:49:19.789Z,12.95
2023-08-04T23:51:48.762Z,14.63
2023-08-04T23:54:17.728Z,15.23
2023-08-04T23:56:46.720Z,13.30
2023-08-04T23:59:15.694Z,16.38
